createdAt,value
2022-09-30T15:43:51.906Z,28.60
2022-09-30T15:46:29.792Z,28.58
2022-09-30T15:49:03.728Z,28.57
2022-09-30T15:51:39.298Z,28.56
2022-09-30T15:54:37.790Z,28.46
2022-09-30T15:57:42.977Z,28.32
2022-09-30T16:00:36.334Z,28.24
2022-09-30T16:03:31.320Z,28.25
2022-09-30T16:06:14.057Z,28.22
2022-09-30T16:08:49.191Z,28.21
2022-09-30T16:11:26.758Z,28.19
2022-09-30T16:13:59.608Z,28.19
2022-09-30T16:16:33.847Z,28.18
2022-09-30T16:19:07.148Z,28.16
2022-09-30T16:21:51.066Z,28.14
2022-09-30T16:24:47.787Z,28.11
2022-09-30T16:27:29.970Z,28.07
2022-09-30T16:30:00.735Z,27.97
2022-09-30T16:32:37.028Z,27.87
2022-09-30T16:35:16.637Z,27.84
2022-09-30T16:37:49.822Z,27.76
2022-09-30T16:40:27.148Z,27.66
2022-09-30T16:43:01.319Z,27.61
2022-09-30T16:45:36.738Z,27.53
2022-09-30T16:48:17.099Z,27.50
2022-09-30T16:50:52.236Z,27.44
2022-09-30T16:53:24.449Z,27.38
2022-09-30T16:55:56.742Z,27.31
2022-09-30T16:58:28.988Z,27.24
2022-09-30T17:01:01.463Z,27.16
2022-09-30T17:03:33.753Z,27.08
2022-09-30T17:06:06.226Z,27.00
2022-09-30T17:08:38.376Z,26.94
2022-09-30T17:11:11.131Z,26.88
2022-09-30T17:13:43.678Z,26.84
2022-09-30T17:16:15.990Z,26.78
2022-09-30T17:18:48.221Z,26.71
2022-09-30T17:21:19.697Z,26.60
2022-09-30T17:23:52.012Z,26.47
2022-09-30T17:26:24.278Z,26.32
2022-09-30T17:29:00.240Z,26.18
2022-09-30T17:31:41.030Z,26.09
2022-09-30T17:34:12.128Z,26.08
2022-09-30T17:36:44.381Z,26.03
2022-09-30T17:39:16.807Z,26.00
2022-09-30T17:42:04.811Z,25.96
2022-09-30T17:44:39.220Z,25.88
2022-09-30T17:47:11.521Z,25.86
2022-09-30T17:49:43.692Z,25.82
2022-09-30T17:52:16.956Z,25.72
2022-09-30T17:54:52.264Z,25.65
2022-09-30T17:57:24.959Z,25.59
2022-09-30T17:59:59.075Z,25.53
2022-09-30T18:02:31.830Z,25.46
2022-09-30T18:05:04.218Z,25.40
2022-09-30T18:07:36.571Z,25.36
2022-09-30T18:10:08.110Z,25.31
2022-09-30T18:12:40.282Z,25.24
2022-09-30T18:15:11.743Z,25.18
2022-09-30T18:17:43.950Z,25.09
2022-09-30T18:20:14.756Z,25.04
2022-09-30T18:22:47.029Z,24.98
2022-09-30T18:25:24.159Z,24.94
2022-09-30T18:27:58.719Z,24.83
2022-09-30T18:30:31.063Z,24.81
2022-09-30T18:33:01.605Z,24.81
2022-09-30T18:35:34.632Z,24.77
2022-09-30T18:38:07.474Z,24.76
2022-09-30T18:40:42.232Z,24.72
2022-09-30T18:43:15.425Z,24.70
2022-09-30T18:45:56.706Z,24.67
2022-09-30T18:48:29.382Z,24.64
2022-09-30T18:51:07.128Z,24.65
2022-09-30T18:53:39.485Z,24.64
2022-09-30T18:56:11.965Z,24.64
2022-09-30T18:58:44.329Z,24.58
2022-09-30T19:01:16.912Z,24.55
2022-09-30T19:03:49.488Z,24.55
2022-09-30T19:06:21.896Z,24.55
2022-09-30T19:08:54.363Z,24.52
2022-09-30T19:11:28.379Z,24.46
2022-09-30T19:14:02.759Z,24.43
2022-09-30T19:16:38.646Z,24.39
2022-09-30T19:19:12.202Z,24.36
2022-09-30T19:21:44.986Z,24.34
2022-09-30T19:24:18.427Z,24.31
2022-09-30T19:26:52.687Z,24.29
2022-09-30T19:29:25.110Z,24.28
2022-09-30T19:31:57.786Z,24.29
2022-09-30T19:34:32.562Z,24.30
2022-09-30T19:37:05.684Z,24.29
2022-09-30T19:39:45.957Z,24.24
2022-09-30T19:42:18.531Z,24.16
2022-09-30T19:44:52.122Z,24.09
2022-09-30T19:47:24.800Z,24.01
2022-09-30T19:49:55.396Z,23.96
2022-09-30T19:52:27.665Z,23.90
2022-09-30T19:55:10.103Z,23.88
2022-09-30T19:57:45.596Z,23.83
2022-09-30T20:00:18.133Z,23.80
2022-09-30T20:02:50.750Z,23.75
2022-09-30T20:05:23.750Z,23.72
2022-09-30T20:07:56.347Z,23.69
2022-09-30T20:10:28.492Z,23.65
2022-09-30T20:12:59.815Z,23.60
2022-09-30T20:15:49.458Z,23.48
2022-09-30T20:18:24.262Z,23.44
2022-09-30T20:20:57.257Z,23.41
2022-09-30T20:23:29.935Z,23.36
2022-09-30T20:26:04.045Z,23.34
2022-09-30T20:28:36.750Z,23.29
2022-09-30T20:31:11.244Z,23.27
2022-09-30T20:33:43.869Z,23.23
2022-09-30T20:36:16.321Z,23.20
2022-09-30T20:38:48.933Z,23.16
2022-09-30T20:41:21.212Z,23.05
2022-09-30T20:43:53.245Z,22.99
2022-09-30T20:46:32.127Z,22.91
2022-09-30T20:49:05.541Z,22.86
2022-09-30T20:51:37.934Z,22.83
2022-09-30T20:54:10.420Z,22.81
2022-09-30T20:57:05.748Z,22.78
2022-09-30T20:59:35.270Z,22.76
2022-09-30T21:02:07.337Z,22.73
2022-09-30T21:04:39.630Z,22.68
2022-09-30T21:07:12.059Z,22.64
2022-09-30T21:09:44.353Z,22.61
2022-09-30T21:12:17.002Z,22.59
2022-09-30T21:14:49.292Z,22.56
2022-09-30T21:17:19.863Z,22.55
2022-09-30T21:19:52.100Z,22.52
2022-09-30T21:22:24.316Z,22.50
2022-09-30T21:24:56.512Z,22.47
2022-09-30T21:27:27.252Z,22.45
2022-09-30T21:29:59.598Z,22.39
2022-09-30T21:32:32.688Z,22.32
2022-09-30T21:35:06.356Z,22.25
2022-09-30T21:37:38.630Z,22.21
2022-09-30T21:40:10.121Z,22.19
2022-09-30T21:42:42.390Z,22.12
2022-09-30T21:45:13.076Z,22.09
2022-09-30T21:47:45.488Z,22.06
2022-09-30T21:50:16.175Z,22.06
2022-09-30T21:52:49.432Z,22.02
2022-09-30T21:55:21.689Z,22.02
2022-09-30T21:57:53.902Z,22.01
2022-09-30T22:00:26.150Z,22.00
2022-09-30T22:02:58.923Z,21.97
2022-09-30T22:05:31.181Z,21.96
2022-09-30T22:08:05.102Z,21.93
2022-09-30T22:10:37.544Z,21.91
2022-09-30T22:13:11.915Z,21.91
2022-09-30T22:15:44.956Z,21.90
2022-09-30T22:18:18.530Z,21.87
2022-09-30T22:20:51.559Z,21.84
2022-09-30T22:23:23.783Z,21.82
2022-09-30T22:25:57.565Z,21.79
2022-09-30T22:28:29.792Z,21.75
2022-09-30T22:31:01.986Z,21.72
2022-09-30T22:33:51.810Z,21.69
2022-09-30T22:36:41.590Z,21.61
2022-09-30T22:39:13.767Z,21.52
2022-09-30T22:41:46.236Z,21.45
2022-09-30T22:44:18.368Z,21.39
2022-09-30T22:46:51.355Z,21.38
2022-09-30T22:49:24.891Z,21.38
2022-09-30T22:51:58.058Z,21.37
2022-09-30T22:54:31.023Z,21.37
2022-09-30T22:57:03.356Z,21.36
2022-09-30T22:59:33.896Z,21.34
2022-09-30T23:02:06.388Z,21.30
2022-09-30T23:04:38.580Z,21.27
2022-09-30T23:07:11.260Z,21.24
2022-09-30T23:09:43.464Z,21.21
2022-09-30T23:12:15.816Z,21.19
2022-09-30T23:14:46.284Z,21.16
2022-09-30T23:17:18.448Z,21.08
2022-09-30T23:19:50.558Z,21.02
2022-09-30T23:22:22.958Z,20.99
2022-09-30T23:24:53.456Z,20.97
2022-09-30T23:27:25.629Z,20.95
2022-09-30T23:29:57.809Z,20.95
2022-09-30T23:32:29.893Z,20.92
2022-09-30T23:35:02.173Z,20.91
2022-09-30T23:37:34.374Z,20.90
2022-09-30T23:40:07.919Z,20.88
2022-09-30T23:42:40.118Z,20.89
2022-09-30T23:45:13.416Z,20.89
2022-09-30T23:47:49.464Z,20.88
2022-09-30T23:50:21.636Z,20.86
2022-09-30T23:52:53.792Z,20.83
2022-09-30T23:55:26.681Z,20.82
2022-09-30T23:57:59.118Z,20.83
